Llano Quemado, New Mexico
Current Conditions -  °F | °C
As of 2:35 AM on Monday 20 Oct 2014 (Local Time) from KSKX Reporting Station
Overcast Overcast  
Wind Chill: 34°   Ceiling: 9500
Heat Index: 39°   Visibility: 10mi
Dew Point: 34°   Wind: 7mph
Humidity: 81%   Direction: 360°N
Pressure: 30.26"   Gusts: NA
Location:  36.2692°N, 105.543°W
Report Text: KSKX 200835Z AUTO 36006KT 10SM OVC095 04/01 A3026 RMK AO1
Loading
Personal Weather Stations






























Interactive Weather Map
Tropical Storm Tracking
New forecast layout! Learn more

10-Day Weather Forecast

Advertisements
Track Severe Weather on mobile